createdAt,value
2023-04-15T00:01:08.399Z,12.57
2023-04-15T00:03:35.793Z,10.68
2023-04-15T00:06:03.884Z,11.65
2023-04-15T00:08:31.280Z,12.00
2023-04-15T00:11:03.163Z,11.93
2023-04-15T00:13:30.376Z,11.93
2023-04-15T00:15:57.634Z,15.68
2023-04-15T00:18:25.089Z,15.85
2023-04-15T00:20:52.760Z,12.60
2023-04-15T00:23:19.812Z,13.43
2023-04-15T00:25:47.474Z,11.32
2023-04-15T00:28:14.644Z,11.10
2023-04-15T00:30:42.890Z,11.95
2023-04-15T00:33:10.184Z,13.02
2023-04-15T00:35:38.807Z,12.55
2023-04-15T00:38:08.252Z,17.65
2023-04-15T00:40:35.768Z,15.23
2023-04-15T00:43:03.107Z,15.48
2023-04-15T00:45:30.662Z,15.52
2023-04-15T00:47:58.803Z,16.42
2023-04-15T00:50:25.894Z,18.55
2023-04-15T00:52:53.179Z,17.15
2023-04-15T00:55:20.491Z,17.77
2023-04-15T00:57:47.690Z,18.25
2023-04-15T01:00:15.060Z,16.80
2023-04-15T01:02:42.327Z,16.88
2023-04-15T01:05:09.731Z,16.90
2023-04-15T01:07:37.013Z,14.50
2023-04-15T01:10:04.974Z,15.30
2023-04-15T01:12:33.348Z,21.90
2023-04-15T01:15:00.986Z,17.45
2023-04-15T01:17:28.490Z,16.25
2023-04-15T01:19:58.206Z,18.17
2023-04-15T01:22:26.920Z,21.13
2023-04-15T01:25:18.662Z,19.13
2023-04-15T01:27:45.807Z,17.00
2023-04-15T01:30:13.048Z,16.83
2023-04-15T01:32:40.179Z,16.45
2023-04-15T01:35:07.983Z,16.58
2023-04-15T01:37:35.231Z,16.85
2023-04-15T01:40:02.461Z,15.02
2023-04-15T01:42:29.606Z,14.57
2023-04-15T01:44:56.643Z,14.70
2023-04-15T01:47:23.756Z,16.48
2023-04-15T01:49:51.116Z,15.98
2023-04-15T01:52:18.642Z,17.23
2023-04-15T01:54:45.965Z,14.48
2023-04-15T01:57:13.148Z,15.70
2023-04-15T01:59:40.377Z,15.15
2023-04-15T02:02:07.486Z,15.70
2023-04-15T02:04:34.585Z,13.85
2023-04-15T02:07:01.836Z,16.13
2023-04-15T02:09:29.455Z,18.73
2023-04-15T02:11:56.649Z,15.93
2023-04-15T02:14:24.343Z,14.07
2023-04-15T02:16:51.771Z,18.15
2023-04-15T02:19:18.895Z,13.52
2023-04-15T02:21:45.931Z,15.32
2023-04-15T02:24:13.076Z,13.82
2023-04-15T02:26:41.666Z,15.35
2023-04-15T02:29:08.798Z,14.20
2023-04-15T02:31:40.786Z,14.93
2023-04-15T02:34:08.406Z,11.88
2023-04-15T02:36:35.478Z,14.48
2023-04-15T02:39:03.377Z,14.90
2023-04-15T02:41:30.823Z,14.05
2023-04-15T02:43:58.684Z,13.07
2023-04-15T02:46:27.649Z,13.45
2023-04-15T02:48:54.786Z,13.15
2023-04-15T02:51:23.624Z,13.50
2023-04-15T02:53:51.088Z,12.32
2023-04-15T02:56:19.664Z,15.77
2023-04-15T02:58:47.271Z,13.43
2023-04-15T03:01:14.922Z,14.10
2023-04-15T03:03:42.442Z,13.10
2023-04-15T03:06:09.693Z,14.32
2023-04-15T03:08:37.350Z,13.50
2023-04-15T03:11:05.153Z,13.23
2023-04-15T03:13:33.822Z,13.27
2023-04-15T03:16:08.683Z,13.35
2023-04-15T03:18:36.247Z,13.13
2023-04-15T03:21:04.008Z,12.90
2023-04-15T03:23:34.747Z,13.02
2023-04-15T03:26:03.198Z,13.75
2023-04-15T03:28:32.963Z,12.70
2023-04-15T03:31:01.272Z,13.35
2023-04-15T03:33:28.567Z,13.57
2023-04-15T03:35:55.887Z,14.23
2023-04-15T03:38:22.928Z,14.90
2023-04-15T03:40:49.996Z,11.65
2023-04-15T03:43:17.288Z,12.52
2023-04-15T03:45:44.396Z,13.63
2023-04-15T03:48:17.630Z,11.70
2023-04-15T03:50:46.442Z,13.32
2023-04-15T03:53:13.583Z,15.25
2023-04-15T03:55:40.647Z,12.45
2023-04-15T03:58:07.924Z,14.52
2023-04-15T04:00:34.959Z,13.38
2023-04-15T04:03:02.262Z,14.30
2023-04-15T04:05:29.502Z,12.68
2023-04-15T04:07:56.754Z,13.75
2023-04-15T04:10:23.781Z,13.85
2023-04-15T04:12:50.826Z,14.05
2023-04-15T04:15:17.982Z,13.32
2023-04-15T04:17:45.235Z,15.15
2023-04-15T04:20:12.608Z,16.08
2023-04-15T04:22:40.761Z,16.30
2023-04-15T04:25:09.082Z,15.60
2023-04-15T04:27:36.638Z,17.40
2023-04-15T04:30:04.325Z,14.23
2023-04-15T04:32:31.671Z,16.17
2023-04-15T04:34:58.742Z,15.63
2023-04-15T04:37:25.927Z,16.20
2023-04-15T04:39:53.004Z,15.35
2023-04-15T04:42:19.991Z,14.45
2023-04-15T04:44:47.423Z,17.20
2023-04-15T04:47:14.646Z,14.70
2023-04-15T04:49:41.796Z,15.73
2023-04-15T04:52:08.927Z,22.20
2023-04-15T04:54:36.090Z,20.48
2023-04-15T04:57:03.301Z,32.35
2023-04-15T04:59:30.361Z,45.80
2023-04-15T05:01:57.684Z,52.15
2023-04-15T05:04:24.699Z,54.67
2023-04-15T05:06:51.989Z,57.72
2023-04-15T05:09:19.470Z,46.22
2023-04-15T05:11:46.532Z,43.20
2023-04-15T05:14:13.601Z,59.15
2023-04-15T05:16:40.662Z,49.90
2023-04-15T05:19:08.148Z,35.35
2023-04-15T05:21:36.632Z,30.75
2023-04-15T05:24:05.687Z,21.90
2023-04-15T05:26:32.824Z,17.85
2023-04-15T05:29:00.107Z,19.75
2023-04-15T05:31:27.574Z,19.23
2023-04-15T05:33:54.667Z,20.20
2023-04-15T05:36:21.824Z,18.95
2023-04-15T05:38:48.822Z,18.55
2023-04-15T05:41:18.478Z,19.33
2023-04-15T05:43:46.742Z,18.25
2023-04-15T05:46:13.798Z,18.02
2023-04-15T05:48:41.185Z,19.10
2023-04-15T05:51:08.426Z,16.48
2023-04-15T05:53:36.072Z,18.30
2023-04-15T05:56:03.219Z,21.63
2023-04-15T05:58:30.270Z,20.00
2023-04-15T06:00:57.435Z,19.13
2023-04-15T06:03:24.804Z,18.58
2023-04-15T06:05:52.009Z,24.98
2023-04-15T06:08:19.476Z,27.52
2023-04-15T06:10:46.593Z,19.15
2023-04-15T06:13:13.782Z,18.48
2023-04-15T06:15:41.434Z,15.82
2023-04-15T06:18:08.512Z,15.63
2023-04-15T06:20:35.640Z,16.55
2023-04-15T06:23:02.663Z,14.90
2023-04-15T06:25:29.883Z,14.15
2023-04-15T06:27:56.938Z,11.30
2023-04-15T06:30:24.558Z,12.90
2023-04-15T06:32:51.922Z,15.32
2023-04-15T06:35:19.262Z,13.25
2023-04-15T06:37:46.541Z,17.35
2023-04-15T06:40:14.037Z,14.68
2023-04-15T06:42:42.090Z,16.40
2023-04-15T06:45:09.748Z,15.38
2023-04-15T06:47:37.027Z,16.77
2023-04-15T06:50:04.554Z,14.55
2023-04-15T06:52:31.946Z,14.73
2023-04-15T06:54:59.828Z,15.60
2023-04-15T06:57:26.924Z,16.98
2023-04-15T06:59:54.818Z,16.27
2023-04-15T07:02:22.404Z,15.60
2023-04-15T07:04:49.581Z,16.42
2023-04-15T07:07:17.709Z,15.43
2023-04-15T07:09:45.349Z,14.68
2023-04-15T07:12:12.451Z,17.35
2023-04-15T07:14:39.612Z,16.40
2023-04-15T07:17:07.122Z,20.88
2023-04-15T07:19:34.237Z,15.68
2023-04-15T07:22:01.394Z,15.00
2023-04-15T07:24:28.612Z,16.38
2023-04-15T07:26:59.460Z,15.98
2023-04-15T07:29:27.839Z,14.73
2023-04-15T07:31:54.969Z,15.98
2023-04-15T07:34:22.113Z,17.23
2023-04-15T07:36:52.252Z,16.55
2023-04-15T07:39:19.402Z,17.65
2023-04-15T07:41:46.830Z,17.02
2023-04-15T07:44:14.003Z,16.27
2023-04-15T07:46:41.435Z,17.15
2023-04-15T07:49:08.885Z,17.40
2023-04-15T07:51:36.082Z,17.42
2023-04-15T07:54:03.460Z,16.58
2023-04-15T07:56:30.789Z,16.75
2023-04-15T07:58:58.014Z,18.25
2023-04-15T08:01:25.155Z,17.40
2023-04-15T08:03:52.880Z,14.75
2023-04-15T08:06:20.213Z,17.95
2023-04-15T08:08:47.851Z,16.13
2023-04-15T08:11:15.026Z,16.10
2023-04-15T08:13:42.084Z,17.02
2023-04-15T08:16:30.426Z,14.77
2023-04-15T08:18:58.126Z,15.57
2023-04-15T08:21:25.991Z,18.83
2023-04-15T08:23:53.955Z,17.02
2023-04-15T08:26:21.832Z,18.98
2023-04-15T08:28:49.887Z,16.00
2023-04-15T08:31:18.490Z,16.05
2023-04-15T08:33:46.526Z,17.67
2023-04-15T08:36:14.252Z,18.30
2023-04-15T08:38:42.025Z,16.35
2023-04-15T08:41:26.408Z,19.17
2023-04-15T08:43:58.993Z,18.50
2023-04-15T08:46:26.965Z,17.30
2023-04-15T08:48:57.814Z,17.65
2023-04-15T08:51:25.721Z,19.30
2023-04-15T08:53:53.222Z,17.58
2023-04-15T08:56:29.238Z,16.40
2023-04-15T08:58:57.270Z,19.05
2023-04-15T09:01:25.081Z,16.88
2023-04-15T09:03:54.965Z,20.33
2023-04-15T09:06:23.404Z,17.08
2023-04-15T09:08:52.121Z,18.08
2023-04-15T09:11:20.337Z,19.98
2023-04-15T09:13:47.723Z,18.60
2023-04-15T09:16:14.888Z,17.67
2023-04-15T09:18:42.086Z,20.08
2023-04-15T09:21:11.533Z,19.55
2023-04-15T09:23:54.455Z,20.83
2023-04-15T09:26:34.171Z,21.83
2023-04-15T09:29:07.029Z,19.58
2023-04-15T09:31:34.305Z,21.75
2023-04-15T09:34:02.151Z,17.17
2023-04-15T09:36:30.150Z,18.33
2023-04-15T09:38:59.320Z,19.00
2023-04-15T09:41:27.570Z,21.85
2023-04-15T09:43:54.728Z,18.33
2023-04-15T09:46:41.556Z,15.60
2023-04-15T09:49:09.652Z,17.73
2023-04-15T09:51:36.842Z,18.27
2023-04-15T09:54:04.813Z,18.02
2023-04-15T09:56:41.668Z,15.60
2023-04-15T09:59:09.205Z,18.15
2023-04-15T10:01:37.414Z,19.17
2023-04-15T10:04:06.288Z,15.48
2023-04-15T10:06:35.006Z,15.63
2023-04-15T10:09:02.156Z,16.77
2023-04-15T10:11:31.579Z,14.55
2023-04-15T10:13:59.093Z,17.38
2023-04-15T10:16:31.198Z,15.95
2023-04-15T10:19:01.674Z,16.23
2023-04-15T10:21:28.952Z,17.15
2023-04-15T10:23:57.510Z,17.42
2023-04-15T10:26:25.495Z,14.90
2023-04-15T10:28:53.817Z,15.85
2023-04-15T10:31:21.812Z,15.18
2023-04-15T10:33:50.029Z,14.10
2023-04-15T10:36:20.180Z,12.50
2023-04-15T10:38:47.457Z,13.55
2023-04-15T10:41:28.103Z,17.90
2023-04-15T10:43:57.045Z,15.07
2023-04-15T10:46:39.459Z,15.70
2023-04-15T10:49:13.847Z,15.13
2023-04-15T10:51:43.016Z,15.25
2023-04-15T10:54:30.312Z,14.23
2023-04-15T10:57:06.814Z,13.88
2023-04-15T10:59:38.052Z,13.48
2023-04-15T11:02:07.130Z,14.38
2023-04-15T11:04:57.730Z,14.57
2023-04-15T11:07:47.110Z,14.05
2023-04-15T11:10:14.209Z,13.32
2023-04-15T11:12:42.153Z,13.18
2023-04-15T11:15:34.404Z,13.02
2023-04-15T11:18:17.456Z,11.50
2023-04-15T11:20:46.900Z,15.35
2023-04-15T11:23:16.191Z,12.68
2023-04-15T11:25:44.244Z,16.13
2023-04-15T11:28:13.262Z,13.75
2023-04-15T11:30:42.867Z,14.18
2023-04-15T11:33:14.913Z,12.98
2023-04-15T11:35:43.267Z,15.45
2023-04-15T11:38:14.725Z,15.45
2023-04-15T11:40:45.279Z,17.70
2023-04-15T11:43:23.726Z,25.10
2023-04-15T11:45:56.611Z,23.52
2023-04-15T11:48:34.728Z,29.65
2023-04-15T11:51:08.281Z,43.00
2023-04-15T11:53:48.888Z,54.13
2023-04-15T11:56:21.683Z,36.33
2023-04-15T11:58:52.285Z,56.97
2023-04-15T12:01:19.667Z,45.22
2023-04-15T12:03:48.582Z,25.80
2023-04-15T12:06:23.721Z,28.88
2023-04-15T12:09:14.207Z,25.35
2023-04-15T12:14:28.753Z,34.30
2023-04-15T12:17:00.443Z,18.58
2023-04-15T12:19:39.628Z,20.17
2023-04-15T12:22:10.569Z,18.05
2023-04-15T12:24:38.743Z,15.90
2023-04-15T12:27:11.524Z,14.23
2023-04-15T12:29:41.003Z,15.23
2023-04-15T12:32:09.357Z,15.88
2023-04-15T12:34:38.887Z,16.02
2023-04-15T12:37:09.727Z,13.77
2023-04-15T12:39:42.972Z,14.13
2023-04-15T12:42:10.628Z,14.88
2023-04-15T12:44:40.319Z,15.40
2023-04-15T12:47:09.306Z,11.83
2023-04-15T12:49:36.603Z,12.38
2023-04-15T12:52:04.498Z,14.25
2023-04-15T12:54:32.462Z,11.48
2023-04-15T12:57:00.213Z,17.00
2023-04-15T12:59:27.513Z,13.02
2023-04-15T13:01:54.792Z,14.45
2023-04-15T13:04:22.561Z,24.08
2023-04-15T13:06:50.037Z,36.28
2023-04-15T13:09:17.265Z,23.80
2023-04-15T13:11:44.477Z,26.73
2023-04-15T13:14:14.657Z,36.53
2023-04-15T13:16:41.814Z,38.28
2023-04-15T13:19:08.872Z,28.42
2023-04-15T13:21:36.530Z,29.08
2023-04-15T13:24:05.264Z,26.50
2023-04-15T13:26:33.042Z,15.20
2023-04-15T13:29:00.201Z,16.70
2023-04-15T13:31:27.562Z,17.67
2023-04-15T13:33:54.937Z,13.38
2023-04-15T13:36:22.023Z,12.93
2023-04-15T13:38:51.178Z,12.27
2023-04-15T13:41:18.872Z,11.27
2023-04-15T13:43:46.507Z,13.43
2023-04-15T13:46:13.788Z,12.30
2023-04-15T13:48:41.137Z,10.93
2023-04-15T13:51:08.202Z,13.18
2023-04-15T13:53:38.228Z,10.50
2023-04-15T13:56:08.122Z,14.68
2023-04-15T13:58:36.612Z,14.65
2023-04-15T14:01:05.691Z,11.43
2023-04-15T14:03:34.935Z,12.15
2023-04-15T14:06:02.382Z,12.43
2023-04-15T14:08:30.985Z,17.38
2023-04-15T14:10:58.153Z,13.68
2023-04-15T14:13:25.447Z,16.27
2023-04-15T14:15:52.668Z,12.57
2023-04-15T14:18:19.774Z,13.30
2023-04-15T14:20:46.863Z,13.10
2023-04-15T14:23:14.042Z,11.73
2023-04-15T14:25:41.218Z,12.35
2023-04-15T14:28:08.392Z,12.98
2023-04-15T14:30:35.946Z,15.05
2023-04-15T14:33:03.963Z,15.50
2023-04-15T14:35:31.548Z,15.93
2023-04-15T14:37:58.828Z,15.93
2023-04-15T14:40:26.019Z,11.65
2023-04-15T14:42:53.106Z,12.15
2023-04-15T14:45:20.221Z,13.13
2023-04-15T14:47:47.570Z,13.68
2023-04-15T14:50:14.765Z,11.23
2023-04-15T14:52:41.848Z,10.27
2023-04-15T14:55:13.441Z,9.65
2023-04-15T14:57:42.723Z,11.18
2023-04-15T15:00:13.171Z,10.75
2023-04-15T15:02:43.615Z,17.35
2023-04-15T15:05:12.342Z,12.52
2023-04-15T15:07:41.225Z,12.30
2023-04-15T15:10:08.662Z,12.23
2023-04-15T15:12:36.446Z,12.48
2023-04-15T15:15:12.367Z,11.10
2023-04-15T15:17:43.333Z,10.13
2023-04-15T15:20:10.972Z,10.60
2023-04-15T15:22:38.104Z,11.85
2023-04-15T15:25:05.915Z,9.90
2023-04-15T15:27:33.209Z,8.88
2023-04-15T15:30:00.352Z,16.58
2023-04-15T15:32:27.533Z,10.70
2023-04-15T15:34:54.650Z,10.68
2023-04-15T15:37:21.752Z,12.93
2023-04-15T15:39:50.910Z,13.70
2023-04-15T15:42:19.790Z,10.88
2023-04-15T15:44:49.405Z,11.70
2023-04-15T15:47:17.209Z,12.40
2023-04-15T15:49:44.967Z,11.60
2023-04-15T15:52:12.393Z,12.60
2023-04-15T15:54:42.544Z,10.00
2023-04-15T15:57:10.505Z,10.70
2023-04-15T15:59:41.775Z,12.10
2023-04-15T16:02:12.735Z,11.10
2023-04-15T16:04:40.378Z,14.60
2023-04-15T16:07:07.619Z,13.05
2023-04-15T16:09:34.932Z,15.57
2023-04-15T16:12:03.464Z,13.20
2023-04-15T16:14:30.725Z,12.65
2023-04-15T16:16:58.380Z,15.20
2023-04-15T16:19:25.586Z,13.73
2023-04-15T16:21:52.822Z,11.93
2023-04-15T16:24:20.120Z,14.95
2023-04-15T16:26:47.466Z,10.60
2023-04-15T16:29:14.587Z,12.27
2023-04-15T16:31:41.827Z,13.30
2023-04-15T16:34:09.161Z,13.50
2023-04-15T16:36:36.506Z,14.95
2023-04-15T16:39:04.474Z,14.48
2023-04-15T16:41:34.325Z,13.55
2023-04-15T16:44:02.209Z,17.17
2023-04-15T16:46:29.925Z,12.73
2023-04-15T16:48:58.506Z,16.20
2023-04-15T16:51:26.095Z,12.25
2023-04-15T16:53:53.457Z,13.57
2023-04-15T16:56:21.802Z,13.68
2023-04-15T16:58:48.895Z,14.43
2023-04-15T17:01:16.495Z,18.40
2023-04-15T17:03:44.057Z,17.20
2023-04-15T17:06:11.307Z,20.77
2023-04-15T17:08:38.437Z,17.65
2023-04-15T17:11:05.708Z,16.60
2023-04-15T17:13:32.827Z,18.10
2023-04-15T17:16:00.022Z,13.85
2023-04-15T17:18:27.151Z,17.10
2023-04-15T17:20:56.085Z,16.50
2023-04-15T17:23:23.131Z,14.63
2023-04-15T17:25:51.748Z,14.10
2023-04-15T17:28:19.290Z,12.95
2023-04-15T17:30:46.570Z,14.55
2023-04-15T17:34:00.362Z,9.32
2023-04-15T17:36:01.135Z,12.40
2023-04-15T17:38:28.301Z,10.63
2023-04-15T17:40:55.585Z,10.45
2023-04-15T17:43:22.664Z,8.60
2023-04-15T17:45:50.445Z,14.45
2023-04-15T17:48:17.675Z,13.85
2023-04-15T17:50:44.824Z,15.18
2023-04-15T17:53:12.031Z,14.65
2023-04-15T17:55:39.116Z,15.82
2023-04-15T17:58:06.446Z,15.85
2023-04-15T18:00:33.633Z,16.20
2023-04-15T18:03:01.147Z,14.38
2023-04-15T18:05:28.381Z,14.65
2023-04-15T18:07:55.666Z,10.60
2023-04-15T18:10:22.884Z,12.80
2023-04-15T18:12:49.947Z,13.63
2023-04-15T18:15:17.653Z,14.57
2023-04-15T18:17:44.846Z,14.55
2023-04-15T18:20:12.983Z,13.38
2023-04-15T18:22:40.409Z,14.85
2023-04-15T18:25:08.015Z,15.20
2023-04-15T18:27:36.037Z,11.88
2023-04-15T18:30:03.367Z,14.57
2023-04-15T18:32:33.060Z,14.85
2023-04-15T18:35:00.604Z,15.93
2023-04-15T18:37:29.599Z,14.50
2023-04-15T18:39:57.117Z,15.57
2023-04-15T18:42:25.455Z,17.42
2023-04-15T18:44:53.992Z,18.55
2023-04-15T18:47:21.375Z,15.45
2023-04-15T18:49:48.575Z,18.80
2023-04-15T18:52:15.742Z,16.20
2023-04-15T18:54:42.909Z,19.27
2023-04-15T18:57:10.326Z,22.45
2023-04-15T18:59:37.699Z,23.10
2023-04-15T19:02:07.589Z,25.35
2023-04-15T19:04:35.196Z,25.10
2023-04-15T19:07:02.471Z,24.23
2023-04-15T19:09:29.905Z,20.25
2023-04-15T19:11:57.851Z,23.85
2023-04-15T19:14:25.009Z,19.63
2023-04-15T19:16:52.260Z,19.73
2023-04-15T19:19:19.576Z,19.83
2023-04-15T19:21:49.998Z,23.20
2023-04-15T19:24:18.377Z,28.42
2023-04-15T19:26:50.048Z,23.08
2023-04-15T19:29:17.834Z,25.00
2023-04-15T19:31:45.385Z,21.27
2023-04-15T19:34:12.481Z,26.80
2023-04-15T19:36:39.706Z,26.73
2023-04-15T19:39:07.054Z,25.83
2023-04-15T19:41:34.286Z,22.33
2023-04-15T19:44:01.434Z,22.50
2023-04-15T19:46:28.717Z,22.98
2023-04-15T19:48:56.078Z,22.50
2023-04-15T19:51:23.324Z,19.95
2023-04-15T19:53:51.155Z,20.48
2023-04-15T19:56:18.264Z,22.52
2023-04-15T19:58:47.106Z,19.30
2023-04-15T20:01:14.294Z,16.52
2023-04-15T20:03:41.801Z,21.55
2023-04-15T20:06:09.045Z,16.60
2023-04-15T20:08:36.184Z,16.52
2023-04-15T20:11:03.448Z,14.77
2023-04-15T20:13:31.210Z,14.00
2023-04-15T20:15:58.386Z,14.57
2023-04-15T20:18:25.532Z,15.60
2023-04-15T20:20:52.644Z,14.75
2023-04-15T20:23:19.797Z,16.05
2023-04-15T20:25:47.046Z,12.05
2023-04-15T20:28:14.090Z,14.88
2023-04-15T20:30:41.470Z,12.57
2023-04-15T20:33:09.156Z,14.85
2023-04-15T20:35:36.373Z,13.18
2023-04-15T20:38:04.601Z,13.90
2023-04-15T20:40:33.868Z,15.05
2023-04-15T20:43:01.076Z,15.07
2023-04-15T20:45:28.410Z,18.05
2023-04-15T20:47:56.284Z,13.45
2023-04-15T20:50:23.445Z,13.35
2023-04-15T20:52:50.777Z,13.00
2023-04-15T20:55:17.838Z,14.30
2023-04-15T20:57:44.949Z,12.80
2023-04-15T21:00:12.503Z,15.90
2023-04-15T21:02:39.779Z,14.48
2023-04-15T21:05:07.375Z,14.07
2023-04-15T21:07:34.583Z,14.95
2023-04-15T21:10:01.853Z,14.65
2023-04-15T21:12:28.946Z,13.10
2023-04-15T21:14:56.192Z,13.30
2023-04-15T21:17:23.306Z,12.98
2023-04-15T21:19:50.414Z,13.95
2023-04-15T21:22:17.665Z,14.40
2023-04-15T21:24:44.777Z,12.45
2023-04-15T21:27:11.959Z,12.35
2023-04-15T21:29:40.567Z,14.38
2023-04-15T21:32:07.861Z,12.13
2023-04-15T21:34:35.062Z,12.82
2023-04-15T21:37:02.442Z,12.18
2023-04-15T21:39:29.623Z,8.98
2023-04-15T21:41:58.122Z,11.82
2023-04-15T21:44:25.518Z,11.45
2023-04-15T21:46:52.725Z,14.63
2023-04-15T21:49:20.643Z,13.32
2023-04-15T21:51:48.253Z,11.93
2023-04-15T21:54:16.224Z,10.98
2023-04-15T21:56:43.436Z,9.95
2023-04-15T21:59:10.579Z,9.95
2023-04-15T22:01:37.851Z,11.73
2023-04-15T22:04:07.557Z,10.50
2023-04-15T22:06:34.860Z,13.65
2023-04-15T22:09:01.918Z,11.00
2023-04-15T22:11:30.646Z,12.05
2023-04-15T22:13:58.892Z,10.02
2023-04-15T22:16:26.978Z,11.95
2023-04-15T22:18:55.007Z,14.00
2023-04-15T22:21:22.307Z,12.73
2023-04-15T22:23:50.091Z,14.77
2023-04-15T22:26:17.289Z,13.35
2023-04-15T22:28:44.447Z,13.25
2023-04-15T22:31:11.690Z,15.32
2023-04-15T22:33:39.206Z,13.68
2023-04-15T22:36:06.541Z,14.30
2023-04-15T22:38:33.756Z,13.32
2023-04-15T22:41:01.000Z,13.25
2023-04-15T22:43:28.099Z,11.68
2023-04-15T22:45:55.411Z,15.50
2023-04-15T22:48:23.207Z,13.10
2023-04-15T22:50:50.456Z,13.60
2023-04-15T22:53:18.005Z,12.38
2023-04-15T22:55:46.980Z,12.80
2023-04-15T22:58:15.312Z,12.57
2023-04-15T23:00:42.431Z,14.02
2023-04-15T23:03:09.878Z,12.35
2023-04-15T23:05:37.326Z,12.82
2023-04-15T23:08:04.407Z,13.15
2023-04-15T23:10:31.523Z,14.77
2023-04-15T23:12:58.646Z,13.80
2023-04-15T23:15:25.733Z,12.82
2023-04-15T23:17:52.928Z,13.52
2023-04-15T23:20:20.050Z,13.23
2023-04-15T23:22:47.116Z,13.50
2023-04-15T23:25:14.262Z,14.05
2023-04-15T23:27:41.365Z,14.15
2023-04-15T23:30:08.801Z,12.75
2023-04-15T23:32:36.118Z,14.10
2023-04-15T23:35:03.329Z,15.23
2023-04-15T23:37:31.592Z,12.82
2023-04-15T23:39:58.664Z,15.13
2023-04-15T23:42:26.206Z,15.70
2023-04-15T23:44:53.316Z,14.63
2023-04-15T23:47:20.448Z,14.07
2023-04-15T23:49:47.520Z,15.02
2023-04-15T23:52:14.782Z,15.63
2023-04-15T23:54:41.854Z,15.30
2023-04-15T23:57:09.035Z,15.55
2023-04-15T23:59:36.317Z,12.48
